sensor_id;sensor_type;location;lat;lon;timestamp;P1;durP1;ratioP1;P2;durP2;ratioP2
50301;SDS011;36550;50.472;19.744;2024-03-08T00:02:43;92.20;;;41.00;;
50301;SDS011;36550;50.472;19.744;2024-03-08T00:05:28;94.70;;;40.60;;
50301;SDS011;36550;50.472;19.744;2024-03-08T00:08:13;82.00;;;35.80;;
50301;SDS011;36550;50.472;19.744;2024-03-08T00:10:57;82.60;;;36.70;;
50301;SDS011;36550;50.472;19.744;2024-03-08T00:13:41;82.90;;;36.30;;
50301;SDS011;36550;50.472;19.744;2024-03-08T00:16:26;100.00;;;43.60;;
50301;SDS011;36550;50.472;19.744;2024-03-08T00:19:10;95.00;;;43.70;;
50301;SDS011;36550;50.472;19.744;2024-03-08T00:21:54;110.30;;;48.40;;
50301;SDS011;36550;50.472;19.744;2024-03-08T00:24:39;84.00;;;38.80;;
50301;SDS011;36550;50.472;19.744;2024-03-08T00:27:23;84.10;;;36.40;;
50301;SDS011;36550;50.472;19.744;2024-03-08T00:30:07;88.80;;;38.90;;
50301;SDS011;36550;50.472;19.744;2024-03-08T00:32:52;82.50;;;37.20;;
50301;SDS011;36550;50.472;19.744;2024-03-08T00:35:37;72.10;;;33.20;;
50301;SDS011;36550;50.472;19.744;2024-03-08T00:38:20;106.80;;;44.00;;
50301;SDS011;36550;50.472;19.744;2024-03-08T00:41:05;89.40;;;40.30;;
50301;SDS011;36550;50.472;19.744;2024-03-08T00:43:49;83.60;;;36.70;;
50301;SDS011;36550;50.472;19.744;2024-03-08T00:46:34;94.80;;;39.80;;
50301;SDS011;36550;50.472;19.744;2024-03-08T00:49:18;88.10;;;38.80;;
50301;SDS011;36550;50.472;19.744;2024-03-08T00:52:02;88.80;;;37.60;;
50301;SDS011;36550;50.472;19.744;2024-03-08T00:54:47;83.70;;;38.60;;
50301;SDS011;36550;50.472;19.744;2024-03-08T00:57:31;87.30;;;36.90;;
50301;SDS011;36550;50.472;19.744;2024-03-08T01:00:15;78.00;;;35.00;;
50301;SDS011;36550;50.472;19.744;2024-03-08T01:03:00;76.40;;;34.70;;
50301;SDS011;36550;50.472;19.744;2024-03-08T01:05:44;52.50;;;26.10;;
50301;SDS011;36550;50.472;19.744;2024-03-08T01:08:29;65.10;;;29.50;;
50301;SDS011;36550;50.472;19.744;2024-03-08T01:11:13;68.60;;;30.40;;
50301;SDS011;36550;50.472;19.744;2024-03-08T01:13:58;59.10;;;25.20;;
50301;SDS011;36550;50.472;19.744;2024-03-08T01:16:41;62.70;;;28.00;;
50301;SDS011;36550;50.472;19.744;2024-03-08T01:19:25;68.10;;;28.40;;
50301;SDS011;36550;50.472;19.744;2024-03-08T01:22:09;63.60;;;28.00;;
50301;SDS011;36550;50.472;19.744;2024-03-08T01:24:53;59.80;;;27.40;;
50301;SDS011;36550;50.472;19.744;2024-03-08T01:27:37;54.90;;;25.90;;
50301;SDS011;36550;50.472;19.744;2024-03-08T01:30:22;54.30;;;23.70;;
50301;SDS011;36550;50.472;19.744;2024-03-08T01:33:07;52.70;;;24.10;;
50301;SDS011;36550;50.472;19.744;2024-03-08T01:35:54;48.30;;;21.30;;
50301;SDS011;36550;50.472;19.744;2024-03-08T01:38:38;42.90;;;20.00;;
50301;SDS011;36550;50.472;19.744;2024-03-08T01:41:22;40.10;;;18.50;;
50301;SDS011;36550;50.472;19.744;2024-03-08T01:44:07;38.30;;;18.60;;
50301;SDS011;36550;50.472;19.744;2024-03-08T01:46:52;41.00;;;20.10;;
50301;SDS011;36550;50.472;19.744;2024-03-08T01:49:37;43.00;;;19.70;;
50301;SDS011;36550;50.472;19.744;2024-03-08T01:52:22;42.50;;;19.40;;
50301;SDS011;36550;50.472;19.744;2024-03-08T01:55:07;41.50;;;19.50;;
50301;SDS011;36550;50.472;19.744;2024-03-08T01:57:51;41.80;;;18.90;;
50301;SDS011;36550;50.472;19.744;2024-03-08T02:00:36;46.20;;;21.40;;
50301;SDS011;36550;50.472;19.744;2024-03-08T02:03:23;47.70;;;21.10;;
50301;SDS011;36550;50.472;19.744;2024-03-08T02:06:07;44.70;;;20.00;;
50301;SDS011;36550;50.472;19.744;2024-03-08T02:08:54;47.50;;;20.70;;
50301;SDS011;36550;50.472;19.744;2024-03-08T02:11:38;39.50;;;19.00;;
50301;SDS011;36550;50.472;19.744;2024-03-08T02:14:25;41.20;;;17.60;;
50301;SDS011;36550;50.472;19.744;2024-03-08T02:17:09;40.00;;;17.90;;
50301;SDS011;36550;50.472;19.744;2024-03-08T02:19:52;35.00;;;16.80;;
50301;SDS011;36550;50.472;19.744;2024-03-08T02:22:37;33.30;;;15.10;;
50301;SDS011;36550;50.472;19.744;2024-03-08T02:25:21;32.70;;;16.40;;
50301;SDS011;36550;50.472;19.744;2024-03-08T02:28:06;34.80;;;16.50;;
50301;SDS011;36550;50.472;19.744;2024-03-08T02:30:52;32.60;;;15.10;;
50301;SDS011;36550;50.472;19.744;2024-03-08T02:33:40;34.10;;;15.00;;
50301;SDS011;36550;50.472;19.744;2024-03-08T02:36:24;38.60;;;17.90;;
50301;SDS011;36550;50.472;19.744;2024-03-08T02:39:08;43.70;;;17.70;;
50301;SDS011;36550;50.472;19.744;2024-03-08T02:41:54;36.60;;;17.50;;
50301;SDS011;36550;50.472;19.744;2024-03-08T02:44:41;38.70;;;18.50;;
50301;SDS011;36550;50.472;19.744;2024-03-08T02:47:28;36.60;;;16.90;;
50301;SDS011;36550;50.472;19.744;2024-03-08T02:50:14;33.90;;;15.50;;
50301;SDS011;36550;50.472;19.744;2024-03-08T02:52:59;33.70;;;14.60;;
50301;SDS011;36550;50.472;19.744;2024-03-08T02:55:44;33.40;;;16.20;;
50301;SDS011;36550;50.472;19.744;2024-03-08T02:58:28;36.10;;;17.40;;
50301;SDS011;36550;50.472;19.744;2024-03-08T03:01:12;35.50;;;17.20;;
50301;SDS011;36550;50.472;19.744;2024-03-08T03:03:56;38.40;;;17.50;;
50301;SDS011;36550;50.472;19.744;2024-03-08T03:06:40;36.20;;;16.60;;
50301;SDS011;36550;50.472;19.744;2024-03-08T03:09:25;42.20;;;18.30;;
50301;SDS011;36550;50.472;19.744;2024-03-08T03:12:11;41.80;;;17.70;;
50301;SDS011;36550;50.472;19.744;2024-03-08T03:14:55;34.10;;;17.20;;
50301;SDS011;36550;50.472;19.744;2024-03-08T03:17:49;42.40;;;17.90;;
50301;SDS011;36550;50.472;19.744;2024-03-08T03:20:37;40.00;;;17.40;;
50301;SDS011;36550;50.472;19.744;2024-03-08T03:23:24;36.80;;;17.50;;
50301;SDS011;36550;50.472;19.744;2024-03-08T03:26:10;34.20;;;16.60;;
50301;SDS011;36550;50.472;19.744;2024-03-08T03:28:57;36.20;;;16.40;;
50301;SDS011;36550;50.472;19.744;2024-03-08T03:31:42;33.00;;;15.40;;
50301;SDS011;36550;50.472;19.744;2024-03-08T03:34:30;34.50;;;16.80;;
50301;SDS011;36550;50.472;19.744;2024-03-08T03:37:14;32.90;;;16.30;;
50301;SDS011;36550;50.472;19.744;2024-03-08T03:39:58;32.40;;;17.10;;
50301;SDS011;36550;50.472;19.744;2024-03-08T03:42:42;34.40;;;16.90;;
50301;SDS011;36550;50.472;19.744;2024-03-08T03:45:26;34.50;;;16.50;;
50301;SDS011;36550;50.472;19.744;2024-03-08T03:48:10;37.00;;;17.00;;
50301;SDS011;36550;50.472;19.744;2024-03-08T03:50:55;28.60;;;14.70;;
50301;SDS011;36550;50.472;19.744;2024-03-08T03:53:39;27.90;;;14.20;;
50301;SDS011;36550;50.472;19.744;2024-03-08T03:56:27;32.60;;;16.10;;
50301;SDS011;36550;50.472;19.744;2024-03-08T03:59:11;29.40;;;15.20;;
50301;SDS011;36550;50.472;19.744;2024-03-08T04:01:55;32.40;;;16.20;;
50301;SDS011;36550;50.472;19.744;2024-03-08T04:04:40;33.80;;;16.50;;
50301;SDS011;36550;50.472;19.744;2024-03-08T04:07:24;30.90;;;15.40;;
50301;SDS011;36550;50.472;19.744;2024-03-08T04:10:08;28.60;;;14.40;;
50301;SDS011;36550;50.472;19.744;2024-03-08T04:12:53;30.10;;;14.10;;
50301;SDS011;36550;50.472;19.744;2024-03-08T04:15:37;27.40;;;13.50;;
50301;SDS011;36550;50.472;19.744;2024-03-08T04:18:21;28.80;;;14.20;;
50301;SDS011;36550;50.472;19.744;2024-03-08T04:21:05;26.30;;;13.00;;
50301;SDS011;36550;50.472;19.744;2024-03-08T04:23:53;31.80;;;13.90;;
50301;SDS011;36550;50.472;19.744;2024-03-08T04:26:37;27.90;;;14.60;;
50301;SDS011;36550;50.472;19.744;2024-03-08T04:29:21;28.10;;;14.40;;
50301;SDS011;36550;50.472;19.744;2024-03-08T04:32:06;28.30;;;15.50;;
50301;SDS011;36550;50.472;19.744;2024-03-08T04:34:52;31.30;;;14.30;;
50301;SDS011;36550;50.472;19.744;2024-03-08T04:37:36;26.60;;;13.50;;
50301;SDS011;36550;50.472;19.744;2024-03-08T04:40:20;29.90;;;14.00;;
50301;SDS011;36550;50.472;19.744;2024-03-08T04:43:05;25.80;;;13.30;;
50301;SDS011;36550;50.472;19.744;2024-03-08T04:45:50;30.00;;;13.90;;
50301;SDS011;36550;50.472;19.744;2024-03-08T04:48:34;29.80;;;14.90;;
50301;SDS011;36550;50.472;19.744;2024-03-08T04:54:04;28.40;;;14.60;;
50301;SDS011;36550;50.472;19.744;2024-03-08T04:56:51;32.90;;;14.50;;
50301;SDS011;36550;50.472;19.744;2024-03-08T04:59:35;29.40;;;15.00;;
50301;SDS011;36550;50.472;19.744;2024-03-08T05:02:20;27.50;;;14.70;;
50301;SDS011;36550;50.472;19.744;2024-03-08T05:05:06;29.90;;;14.40;;
50301;SDS011;36550;50.472;19.744;2024-03-08T05:07:50;30.70;;;15.40;;
50301;SDS011;36550;50.472;19.744;2024-03-08T05:10:34;31.40;;;16.00;;
50301;SDS011;36550;50.472;19.744;2024-03-08T05:13:18;30.70;;;15.20;;
50301;SDS011;36550;50.472;19.744;2024-03-08T05:16:02;27.50;;;15.20;;
50301;SDS011;36550;50.472;19.744;2024-03-08T05:18:47;28.60;;;14.30;;
50301;SDS011;36550;50.472;19.744;2024-03-08T05:21:31;27.50;;;14.90;;
50301;SDS011;36550;50.472;19.744;2024-03-08T05:24:16;31.20;;;14.70;;
50301;SDS011;36550;50.472;19.744;2024-03-08T05:27:01;26.30;;;14.90;;
50301;SDS011;36550;50.472;19.744;2024-03-08T05:29:47;29.30;;;14.80;;
50301;SDS011;36550;50.472;19.744;2024-03-08T05:32:31;28.60;;;14.60;;
50301;SDS011;36550;50.472;19.744;2024-03-08T05:35:15;30.20;;;14.30;;
50301;SDS011;36550;50.472;19.744;2024-03-08T05:38:03;33.70;;;15.10;;
50301;SDS011;36550;50.472;19.744;2024-03-08T05:40:47;31.40;;;15.50;;
50301;SDS011;36550;50.472;19.744;2024-03-08T05:43:31;30.50;;;14.00;;
50301;SDS011;36550;50.472;19.744;2024-03-08T05:46:15;33.40;;;16.00;;
50301;SDS011;36550;50.472;19.744;2024-03-08T05:49:02;32.10;;;16.00;;
50301;SDS011;36550;50.472;19.744;2024-03-08T05:51:49;32.40;;;15.90;;
50301;SDS011;36550;50.472;19.744;2024-03-08T05:54:33;33.70;;;16.40;;
50301;SDS011;36550;50.472;19.744;2024-03-08T05:57:17;30.90;;;16.70;;
50301;SDS011;36550;50.472;19.744;2024-03-08T06:00:02;33.20;;;17.00;;
50301;SDS011;36550;50.472;19.744;2024-03-08T06:02:46;29.90;;;15.20;;
50301;SDS011;36550;50.472;19.744;2024-03-08T06:05:30;36.30;;;17.50;;
50301;SDS011;36550;50.472;19.744;2024-03-08T06:08:15;36.00;;;17.10;;
50301;SDS011;36550;50.472;19.744;2024-03-08T06:10:59;36.70;;;16.60;;
50301;SDS011;36550;50.472;19.744;2024-03-08T06:13:44;35.90;;;17.00;;
50301;SDS011;36550;50.472;19.744;2024-03-08T06:16:28;39.70;;;16.90;;
50301;SDS011;36550;50.472;19.744;2024-03-08T06:19:13;43.20;;;18.40;;
50301;SDS011;36550;50.472;19.744;2024-03-08T06:21:57;33.10;;;16.80;;
50301;SDS011;36550;50.472;19.744;2024-03-08T06:24:42;34.20;;;16.20;;
50301;SDS011;36550;50.472;19.744;2024-03-08T06:27:26;38.70;;;18.00;;
50301;SDS011;36550;50.472;19.744;2024-03-08T06:30:10;34.70;;;17.20;;
50301;SDS011;36550;50.472;19.744;2024-03-08T06:32:56;34.10;;;17.70;;
50301;SDS011;36550;50.472;19.744;2024-03-08T06:35:40;33.20;;;17.10;;
50301;SDS011;36550;50.472;19.744;2024-03-08T06:38:24;33.30;;;16.50;;
50301;SDS011;36550;50.472;19.744;2024-03-08T06:41:09;31.90;;;15.80;;
50301;SDS011;36550;50.472;19.744;2024-03-08T06:43:59;32.40;;;16.60;;
50301;SDS011;36550;50.472;19.744;2024-03-08T06:46:43;33.20;;;15.70;;
50301;SDS011;36550;50.472;19.744;2024-03-08T06:49:27;38.30;;;18.40;;
50301;SDS011;36550;50.472;19.744;2024-03-08T06:52:11;36.30;;;17.80;;
50301;SDS011;36550;50.472;19.744;2024-03-08T06:54:56;36.30;;;18.10;;
50301;SDS011;36550;50.472;19.744;2024-03-08T06:57:41;36.10;;;18.10;;
50301;SDS011;36550;50.472;19.744;2024-03-08T07:00:25;40.10;;;18.40;;
50301;SDS011;36550;50.472;19.744;2024-03-08T07:03:12;38.30;;;18.40;;
50301;SDS011;36550;50.472;19.744;2024-03-08T07:06:01;38.80;;;18.90;;
50301;SDS011;36550;50.472;19.744;2024-03-08T07:08:46;34.00;;;17.60;;
50301;SDS011;36550;50.472;19.744;2024-03-08T07:11:30;35.20;;;17.90;;
50301;SDS011;36550;50.472;19.744;2024-03-08T07:14:14;38.50;;;18.40;;
50301;SDS011;36550;50.472;19.744;2024-03-08T07:16:59;37.70;;;18.50;;
50301;SDS011;36550;50.472;19.744;2024-03-08T07:19:43;37.80;;;18.00;;
50301;SDS011;36550;50.472;19.744;2024-03-08T07:22:27;35.80;;;18.60;;
50301;SDS011;36550;50.472;19.744;2024-03-08T07:25:11;42.50;;;18.90;;
50301;SDS011;36550;50.472;19.744;2024-03-08T07:28:05;32.20;;;17.40;;
50301;SDS011;36550;50.472;19.744;2024-03-08T07:30:50;32.90;;;17.90;;
50301;SDS011;36550;50.472;19.744;2024-03-08T07:33:45;36.40;;;17.90;;
50301;SDS011;36550;50.472;19.744;2024-03-08T07:36:29;34.40;;;16.60;;
50301;SDS011;36550;50.472;19.744;2024-03-08T07:39:14;31.40;;;16.10;;
50301;SDS011;36550;50.472;19.744;2024-03-08T07:41:58;32.10;;;17.20;;
50301;SDS011;36550;50.472;19.744;2024-03-08T07:44:42;30.10;;;16.80;;
50301;SDS011;36550;50.472;19.744;2024-03-08T07:47:26;34.50;;;17.50;;
50301;SDS011;36550;50.472;19.744;2024-03-08T07:50:10;37.20;;;18.40;;
50301;SDS011;36550;50.472;19.744;2024-03-08T07:52:55;34.60;;;17.60;;
50301;SDS011;36550;50.472;19.744;2024-03-08T07:55:39;26.70;;;15.80;;
50301;SDS011;36550;50.472;19.744;2024-03-08T07:58:26;26.10;;;14.30;;
50301;SDS011;36550;50.472;19.744;2024-03-08T08:01:16;27.90;;;14.60;;
50301;SDS011;36550;50.472;19.744;2024-03-08T08:04:02;28.00;;;15.60;;
50301;SDS011;36550;50.472;19.744;2024-03-08T08:06:46;28.50;;;16.40;;
50301;SDS011;36550;50.472;19.744;2024-03-08T08:09:30;30.80;;;14.90;;
50301;SDS011;36550;50.472;19.744;2024-03-08T08:12:18;25.10;;;13.90;;
50301;SDS011;36550;50.472;19.744;2024-03-08T08:15:02;27.00;;;14.50;;
50301;SDS011;36550;50.472;19.744;2024-03-08T08:17:46;37.10;;;17.60;;
50301;SDS011;36550;50.472;19.744;2024-03-08T08:20:31;34.50;;;18.30;;
50301;SDS011;36550;50.472;19.744;2024-03-08T08:23:15;35.80;;;18.60;;
50301;SDS011;36550;50.472;19.744;2024-03-08T08:25:59;30.30;;;16.00;;
50301;SDS011;36550;50.472;19.744;2024-03-08T08:28:43;32.30;;;16.10;;
50301;SDS011;36550;50.472;19.744;2024-03-08T08:31:30;30.40;;;16.20;;
50301;SDS011;36550;50.472;19.744;2024-03-08T08:34:16;28.90;;;15.20;;
50301;SDS011;36550;50.472;19.744;2024-03-08T08:37:03;32.30;;;16.30;;
50301;SDS011;36550;50.472;19.744;2024-03-08T08:39:47;31.50;;;17.70;;
50301;SDS011;36550;50.472;19.744;2024-03-08T08:42:33;33.20;;;17.30;;
50301;SDS011;36550;50.472;19.744;2024-03-08T08:45:17;29.90;;;16.50;;
50301;SDS011;36550;50.472;19.744;2024-03-08T08:48:01;31.70;;;16.70;;
50301;SDS011;36550;50.472;19.744;2024-03-08T08:50:46;30.60;;;15.30;;
50301;SDS011;36550;50.472;19.744;2024-03-08T08:53:31;27.50;;;14.40;;
50301;SDS011;36550;50.472;19.744;2024-03-08T08:56:15;36.20;;;20.10;;
50301;SDS011;36550;50.472;19.744;2024-03-08T08:58:59;39.80;;;20.60;;
50301;SDS011;36550;50.472;19.744;2024-03-08T09:01:43;38.70;;;19.80;;
50301;SDS011;36550;50.472;19.744;2024-03-08T09:04:30;30.10;;;15.80;;
50301;SDS011;36550;50.472;19.744;2024-03-08T09:07:14;51.60;;;26.90;;
50301;SDS011;36550;50.472;19.744;2024-03-08T09:10:00;51.30;;;27.40;;
50301;SDS011;36550;50.472;19.744;2024-03-08T09:12:44;34.40;;;17.20;;
50301;SDS011;36550;50.472;19.744;2024-03-08T09:15:28;52.00;;;23.50;;
50301;SDS011;36550;50.472;19.744;2024-03-08T09:18:12;34.00;;;17.40;;
50301;SDS011;36550;50.472;19.744;2024-03-08T09:20:57;32.50;;;16.80;;
50301;SDS011;36550;50.472;19.744;2024-03-08T09:23:41;31.80;;;16.70;;
50301;SDS011;36550;50.472;19.744;2024-03-08T09:26:28;35.40;;;19.40;;
50301;SDS011;36550;50.472;19.744;2024-03-08T09:29:12;33.70;;;15.20;;
50301;SDS011;36550;50.472;19.744;2024-03-08T09:31:57;31.20;;;15.90;;
50301;SDS011;36550;50.472;19.744;2024-03-08T09:34:41;33.40;;;17.90;;
50301;SDS011;36550;50.472;19.744;2024-03-08T09:37:25;35.00;;;16.40;;
50301;SDS011;36550;50.472;19.744;2024-03-08T09:40:09;91.10;;;37.10;;
50301;SDS011;36550;50.472;19.744;2024-03-08T09:42:54;43.80;;;19.60;;
50301;SDS011;36550;50.472;19.744;2024-03-08T09:45:40;74.80;;;27.90;;
50301;SDS011;36550;50.472;19.744;2024-03-08T09:48:25;122.40;;;41.70;;
50301;SDS011;36550;50.472;19.744;2024-03-08T09:51:10;44.20;;;18.90;;
50301;SDS011;36550;50.472;19.744;2024-03-08T09:53:59;56.90;;;23.80;;
50301;SDS011;36550;50.472;19.744;2024-03-08T09:56:42;39.00;;;18.10;;
50301;SDS011;36550;50.472;19.744;2024-03-08T09:59:30;44.30;;;19.90;;
50301;SDS011;36550;50.472;19.744;2024-03-08T10:02:20;30.50;;;15.90;;
50301;SDS011;36550;50.472;19.744;2024-03-08T10:05:05;32.40;;;15.90;;
50301;SDS011;36550;50.472;19.744;2024-03-08T10:07:49;48.80;;;21.50;;
50301;SDS011;36550;50.472;19.744;2024-03-08T10:10:34;30.10;;;15.70;;
50301;SDS011;36550;50.472;19.744;2024-03-08T10:13:19;44.00;;;20.30;;
50301;SDS011;36550;50.472;19.744;2024-03-08T10:16:04;40.40;;;19.30;;
50301;SDS011;36550;50.472;19.744;2024-03-08T10:18:48;34.90;;;17.60;;
50301;SDS011;36550;50.472;19.744;2024-03-08T10:21:32;26.10;;;14.70;;
50301;SDS011;36550;50.472;19.744;2024-03-08T10:24:17;28.50;;;15.60;;
50301;SDS011;36550;50.472;19.744;2024-03-08T10:27:01;26.90;;;14.40;;
50301;SDS011;36550;50.472;19.744;2024-03-08T10:29:48;31.20;;;17.80;;
50301;SDS011;36550;50.472;19.744;2024-03-08T10:32:34;26.10;;;14.10;;
50301;SDS011;36550;50.472;19.744;2024-03-08T10:35:18;22.40;;;13.00;;
50301;SDS011;36550;50.472;19.744;2024-03-08T10:40:51;22.30;;;12.80;;
50301;SDS011;36550;50.472;19.744;2024-03-08T10:43:42;24.80;;;12.90;;
50301;SDS011;36550;50.472;19.744;2024-03-08T10:46:58;29.60;;;13.90;;
50301;SDS011;36550;50.472;19.744;2024-03-08T10:52:52;22.50;;;10.10;;
50301;SDS011;36550;50.472;19.744;2024-03-08T10:55:37;19.50;;;11.50;;
50301;SDS011;36550;50.472;19.744;2024-03-08T10:58:25;24.50;;;12.70;;
50301;SDS011;36550;50.472;19.744;2024-03-08T11:01:11;23.70;;;12.30;;
50301;SDS011;36550;50.472;19.744;2024-03-08T11:03:55;20.70;;;11.00;;
50301;SDS011;36550;50.472;19.744;2024-03-08T11:09:28;21.00;;;11.40;;
50301;SDS011;36550;50.472;19.744;2024-03-08T11:12:27;22.70;;;11.70;;
50301;SDS011;36550;50.472;19.744;2024-03-08T11:15:15;20.20;;;10.50;;
50301;SDS011;36550;50.472;19.744;2024-03-08T11:18:02;23.60;;;11.90;;
50301;SDS011;36550;50.472;19.744;2024-03-08T11:20:49;19.10;;;9.40;;
50301;SDS011;36550;50.472;19.744;2024-03-08T11:23:34;24.70;;;12.00;;
50301;SDS011;36550;50.472;19.744;2024-03-08T11:26:20;20.90;;;11.30;;
50301;SDS011;36550;50.472;19.744;2024-03-08T11:32:12;24.20;;;12.10;;
50301;SDS011;36550;50.472;19.744;2024-03-08T11:34:56;24.40;;;12.10;;
50301;SDS011;36550;50.472;19.744;2024-03-08T11:37:43;24.00;;;12.50;;
50301;SDS011;36550;50.472;19.744;2024-03-08T11:40:28;29.00;;;14.30;;
50301;SDS011;36550;50.472;19.744;2024-03-08T11:43:12;28.70;;;14.00;;
50301;SDS011;36550;50.472;19.744;2024-03-08T11:46:10;24.30;;;12.30;;
50301;SDS011;36550;50.472;19.744;2024-03-08T11:48:58;29.30;;;13.70;;
50301;SDS011;36550;50.472;19.744;2024-03-08T11:51:42;23.50;;;12.80;;
50301;SDS011;36550;50.472;19.744;2024-03-08T11:54:27;23.40;;;12.90;;
50301;SDS011;36550;50.472;19.744;2024-03-08T11:57:11;30.50;;;14.70;;
50301;SDS011;36550;50.472;19.744;2024-03-08T11:59:55;28.10;;;13.30;;
50301;SDS011;36550;50.472;19.744;2024-03-08T12:02:40;26.70;;;13.50;;
50301;SDS011;36550;50.472;19.744;2024-03-08T12:05:26;23.60;;;13.10;;
50301;SDS011;36550;50.472;19.744;2024-03-08T12:08:11;26.50;;;12.60;;
50301;SDS011;36550;50.472;19.744;2024-03-08T12:10:56;32.40;;;14.80;;
50301;SDS011;36550;50.472;19.744;2024-03-08T12:13:43;28.10;;;13.70;;
50301;SDS011;36550;50.472;19.744;2024-03-08T12:16:30;25.20;;;14.20;;
50301;SDS011;36550;50.472;19.744;2024-03-08T12:19:14;25.50;;;13.50;;
50301;SDS011;36550;50.472;19.744;2024-03-08T12:22:06;30.30;;;14.90;;
50301;SDS011;36550;50.472;19.744;2024-03-08T12:25:03;25.80;;;13.00;;
50301;SDS011;36550;50.472;19.744;2024-03-08T12:27:49;23.60;;;12.80;;
50301;SDS011;36550;50.472;19.744;2024-03-08T12:30:36;24.30;;;13.10;;
50301;SDS011;36550;50.472;19.744;2024-03-08T12:33:29;27.20;;;12.90;;
50301;SDS011;36550;50.472;19.744;2024-03-08T12:36:15;26.00;;;13.60;;
50301;SDS011;36550;50.472;19.744;2024-03-08T12:39:00;25.20;;;12.80;;
50301;SDS011;36550;50.472;19.744;2024-03-08T12:41:44;29.60;;;13.70;;
50301;SDS011;36550;50.472;19.744;2024-03-08T12:44:30;33.10;;;14.60;;
50301;SDS011;36550;50.472;19.744;2024-03-08T12:47:15;24.80;;;13.80;;
50301;SDS011;36550;50.472;19.744;2024-03-08T12:49:59;27.60;;;13.50;;
50301;SDS011;36550;50.472;19.744;2024-03-08T12:52:44;24.80;;;13.60;;
50301;SDS011;36550;50.472;19.744;2024-03-08T12:55:28;25.60;;;14.40;;
50301;SDS011;36550;50.472;19.744;2024-03-08T12:58:13;23.60;;;13.90;;
50301;SDS011;36550;50.472;19.744;2024-03-08T13:00:57;22.50;;;12.50;;
50301;SDS011;36550;50.472;19.744;2024-03-08T13:03:41;21.50;;;11.70;;
50301;SDS011;36550;50.472;19.744;2024-03-08T13:06:27;27.00;;;12.60;;
50301;SDS011;36550;50.472;19.744;2024-03-08T13:09:12;25.10;;;13.50;;
50301;SDS011;36550;50.472;19.744;2024-03-08T13:11:57;29.60;;;14.50;;
50301;SDS011;36550;50.472;19.744;2024-03-08T13:14:42;25.10;;;12.90;;
50301;SDS011;36550;50.472;19.744;2024-03-08T13:17:27;25.50;;;12.80;;
50301;SDS011;36550;50.472;19.744;2024-03-08T13:20:13;26.30;;;12.40;;
50301;SDS011;36550;50.472;19.744;2024-03-08T13:23:01;24.90;;;13.50;;
50301;SDS011;36550;50.472;19.744;2024-03-08T13:25:46;24.20;;;13.80;;
50301;SDS011;36550;50.472;19.744;2024-03-08T13:28:34;27.30;;;13.90;;
50301;SDS011;36550;50.472;19.744;2024-03-08T13:31:21;26.10;;;13.20;;
50301;SDS011;36550;50.472;19.744;2024-03-08T13:34:05;24.40;;;13.90;;
50301;SDS011;36550;50.472;19.744;2024-03-08T13:36:49;27.40;;;13.60;;
50301;SDS011;36550;50.472;19.744;2024-03-08T13:39:35;25.80;;;12.60;;
50301;SDS011;36550;50.472;19.744;2024-03-08T13:42:24;27.00;;;13.40;;
50301;SDS011;36550;50.472;19.744;2024-03-08T13:45:09;24.50;;;13.70;;
50301;SDS011;36550;50.472;19.744;2024-03-08T13:47:57;28.20;;;13.70;;
50301;SDS011;36550;50.472;19.744;2024-03-08T13:50:42;26.60;;;12.80;;
50301;SDS011;36550;50.472;19.744;2024-03-08T13:53:26;25.10;;;14.10;;
50301;SDS011;36550;50.472;19.744;2024-03-08T13:56:11;28.10;;;13.70;;
50301;SDS011;36550;50.472;19.744;2024-03-08T13:58:55;22.90;;;12.10;;
50301;SDS011;36550;50.472;19.744;2024-03-08T14:01:40;27.50;;;12.50;;
50301;SDS011;36550;50.472;19.744;2024-03-08T14:04:27;24.70;;;12.60;;
50301;SDS011;36550;50.472;19.744;2024-03-08T14:07:12;27.80;;;12.90;;
50301;SDS011;36550;50.472;19.744;2024-03-08T14:09:56;26.70;;;13.80;;
50301;SDS011;36550;50.472;19.744;2024-03-08T14:12:41;30.40;;;13.10;;
50301;SDS011;36550;50.472;19.744;2024-03-08T14:15:26;27.30;;;13.70;;
50301;SDS011;36550;50.472;19.744;2024-03-08T14:18:11;25.40;;;12.50;;
50301;SDS011;36550;50.472;19.744;2024-03-08T14:20:57;30.90;;;14.90;;
50301;SDS011;36550;50.472;19.744;2024-03-08T14:23:42;25.60;;;13.50;;
50301;SDS011;36550;50.472;19.744;2024-03-08T14:26:27;26.00;;;14.00;;
50301;SDS011;36550;50.472;19.744;2024-03-08T14:29:11;23.10;;;13.00;;
50301;SDS011;36550;50.472;19.744;2024-03-08T14:31:55;27.60;;;14.20;;
50301;SDS011;36550;50.472;19.744;2024-03-08T14:34:43;28.50;;;15.20;;
50301;SDS011;36550;50.472;19.744;2024-03-08T14:37:27;28.20;;;14.00;;
50301;SDS011;36550;50.472;19.744;2024-03-08T14:40:13;27.40;;;15.20;;
50301;SDS011;36550;50.472;19.744;2024-03-08T14:45:43;28.50;;;13.70;;
50301;SDS011;36550;50.472;19.744;2024-03-08T14:48:31;25.70;;;12.70;;
50301;SDS011;36550;50.472;19.744;2024-03-08T14:51:15;23.10;;;13.10;;
50301;SDS011;36550;50.472;19.744;2024-03-08T14:53:59;29.40;;;14.80;;
50301;SDS011;36550;50.472;19.744;2024-03-08T14:56:43;27.10;;;13.60;;
50301;SDS011;36550;50.472;19.744;2024-03-08T14:59:28;30.00;;;13.80;;
50301;SDS011;36550;50.472;19.744;2024-03-08T15:02:14;77.30;;;36.60;;
50301;SDS011;36550;50.472;19.744;2024-03-08T15:04:58;32.30;;;16.50;;
50301;SDS011;36550;50.472;19.744;2024-03-08T15:07:45;25.70;;;14.60;;
50301;SDS011;36550;50.472;19.744;2024-03-08T15:10:29;25.90;;;13.80;;
50301;SDS011;36550;50.472;19.744;2024-03-08T15:13:17;30.50;;;16.80;;
50301;SDS011;36550;50.472;19.744;2024-03-08T15:16:08;25.10;;;14.70;;
50301;SDS011;36550;50.472;19.744;2024-03-08T15:18:52;26.50;;;14.60;;
50301;SDS011;36550;50.472;19.744;2024-03-08T15:21:37;23.90;;;13.80;;
50301;SDS011;36550;50.472;19.744;2024-03-08T15:24:22;24.30;;;12.20;;
50301;SDS011;36550;50.472;19.744;2024-03-08T15:27:07;33.80;;;14.00;;
50301;SDS011;36550;50.472;19.744;2024-03-08T15:29:51;29.70;;;13.70;;
50301;SDS011;36550;50.472;19.744;2024-03-08T15:32:43;25.30;;;13.80;;
50301;SDS011;36550;50.472;19.744;2024-03-08T15:35:28;31.20;;;14.20;;
50301;SDS011;36550;50.472;19.744;2024-03-08T15:38:13;39.80;;;16.30;;
50301;SDS011;36550;50.472;19.744;2024-03-08T15:40:57;30.60;;;14.80;;
50301;SDS011;36550;50.472;19.744;2024-03-08T15:43:41;59.10;;;26.90;;
50301;SDS011;36550;50.472;19.744;2024-03-08T15:46:25;36.40;;;16.70;;
50301;SDS011;36550;50.472;19.744;2024-03-08T15:49:09;35.10;;;15.10;;
50301;SDS011;36550;50.472;19.744;2024-03-08T15:51:54;28.60;;;14.60;;
50301;SDS011;36550;50.472;19.744;2024-03-08T15:54:38;33.40;;;16.40;;
50301;SDS011;36550;50.472;19.744;2024-03-08T15:57:23;30.70;;;14.60;;
50301;SDS011;36550;50.472;19.744;2024-03-08T16:00:08;32.60;;;15.10;;
50301;SDS011;36550;50.472;19.744;2024-03-08T16:02:56;31.80;;;15.10;;
50301;SDS011;36550;50.472;19.744;2024-03-08T16:05:42;34.10;;;17.00;;
50301;SDS011;36550;50.472;19.744;2024-03-08T16:08:30;31.90;;;14.60;;
50301;SDS011;36550;50.472;19.744;2024-03-08T16:11:15;31.40;;;15.20;;